Time;durP1;ratioP1;P1;durP2;ratioP2;P2;SDS_P1;SDS_P2;PMS_P1;PMS_P2;Temp;Humidity;BMP_temperature;BMP_pressure;BME280_temperature;BME280_humidity;BME280_pressure;Samples;Min_cycle;Max_cycle;Signal;HPM_P1;HPM_P2
2022/05/18 09:36:03;;;;;;;2.73;2.00;;;26.30;84.40;;;;;;5039964;23;20485;-65
2022/05/18 09:38:37;;;;;;;2.60;2.00;;;26.40;81.50;;;;;;5033654;28;20461;-65
2022/05/18 09:41:07;;;;;;;1.93;1.80;;;26.40;81.90;;;;;;5033656;28;20458;-66
2022/05/18 09:43:41;;;;;;;2.20;1.70;;;26.60;80.80;;;;;;5033421;28;20470;-65
2022/05/18 09:46:12;;;;;;;8.23;2.03;;;26.60;80.70;;;;;;5033522;28;20454;-65
2022/05/18 09:48:46;;;;;;;2.40;1.70;;;26.80;82.60;;;;;;5033216;28;20498;-65
2022/05/18 09:51:15;;;;;;;3.50;2.00;;;26.90;80.00;;;;;;5033357;28;20520;-65
2022/05/18 09:53:42;;;;;;;3.10;1.87;;;27.10;81.70;;;;;;5033021;28;20561;-66
2022/05/18 09:56:17;;;;;;;2.23;1.90;;;27.30;80.60;;;;;;5014188;28;20454;-65
2022/05/18 09:58:48;;;;;;;3.47;2.37;;;27.20;76.90;;;;;;5032779;28;20462;-65
2022/05/18 10:09:44;;;;;;;2.63;1.87;;;27.70;78.10;;;;;;5032996;28;20485;-65
2022/05/18 10:12:22;;;;;;;1.73;1.63;;;27.60;78.70;;;;;;5032933;28;20449;-65
2022/05/18 10:14:57;;;;;;;2.80;2.00;;;27.70;79.90;;;;;;5027647;28;20912;-65
2022/05/18 10:17:32;;;;;;;2.43;1.90;;;27.80;80.30;;;;;;5033024;28;21150;-65
2022/05/18 10:20:05;;;;;;;3.50;2.40;;;27.90;83.00;;;;;;5032520;28;20822;-65
2022/05/18 10:22:45;;;;;;;3.40;2.10;;;28.10;78.70;;;;;;5032468;28;20459;-63
2022/05/18 10:25:23;;;;;;;3.23;2.30;;;28.20;79.40;;;;;;5030772;28;20466;-64
2022/05/18 10:27:50;;;;;;;3.47;2.87;;;28.30;78.40;;;;;;5040214;28;20478;-63
2022/05/18 10:30:19;;;;;;;2.80;2.17;;;28.40;78.10;;;;;;5029830;28;20485;-64
2022/05/18 10:32:57;;;;;;;4.10;2.50;;;28.40;77.30;;;;;;5029873;28;20462;-63
2022/05/18 10:35:48;;;;;;;2.70;2.00;;;28.40;78.20;;;;;;5029470;28;20465;-63
2022/05/18 10:38:27;;;;;;;3.00;2.43;;;28.40;78.80;;;;;;5029689;28;20552;-63
2022/05/18 10:41:06;;;;;;;1.90;1.73;;;28.50;76.80;;;;;;5029953;28;20465;-63
2022/05/18 10:43:35;;;;;;;2.27;2.00;;;28.70;76.40;;;;;;5029859;28;21096;-63
2022/05/18 10:46:05;;;;;;;3.27;2.20;;;28.80;76.90;;;;;;5029978;28;20463;-63
2022/05/18 10:48:33;;;;;;;2.37;1.77;;;28.90;77.90;;;;;;5029106;28;20494;-63
2022/05/18 10:51:07;;;;;;;3.40;1.90;;;29.00;77.10;;;;;;5027754;28;20454;-63
2022/05/18 10:53:40;;;;;;;3.60;2.10;;;29.00;75.90;;;;;;5021994;28;20832;-64
2022/05/18 10:56:12;;;;;;;2.97;2.30;;;29.10;75.40;;;;;;5029928;28;20529;-63
2022/05/18 10:58:44;;;;;;;2.90;2.10;;;29.30;76.00;;;;;;5022716;28;20473;-64
2022/05/18 11:01:16;;;;;;;2.97;2.07;;;29.40;75.00;;;;;;5029598;28;20520;-63
2022/05/18 11:03:55;;;;;;;2.00;1.70;;;29.50;75.10;;;;;;5029310;28;20874;-63
2022/05/18 11:06:27;;;;;;;2.80;2.07;;;29.50;74.60;;;;;;5029557;28;20841;-63
2022/05/18 11:08:59;;;;;;;1.80;1.80;;;29.70;74.40;;;;;;5029650;28;20498;-63
2022/05/18 11:11:36;;;;;;;3.27;2.20;;;29.80;73.10;;;;;;5029687;28;20462;-63
2022/05/18 11:14:14;;;;;;;1.73;1.60;;;30.10;72.50;;;;;;5029373;28;20842;-63
2022/05/18 11:16:51;;;;;;;2.10;1.70;;;30.20;71.30;;;;;;5029504;28;20458;-63
2022/05/18 11:19:32;;;;;;;3.23;2.37;;;30.40;70.20;;;;;;5029134;28;20462;-63
2022/05/18 11:22:15;;;;;;;2.50;2.10;;;30.60;72.30;;;;;;5029707;28;20471;-64
2022/05/18 11:24:51;;;;;;;2.47;2.10;;;30.80;68.80;;;;;;5021747;28;20952;-63
2022/05/18 11:27:30;;;;;;;3.97;1.80;;;31.00;71.10;;;;;;5028055;28;20469;-63
2022/05/18 11:30:06;;;;;;;2.70;1.93;;;31.20;69.60;;;;;;5028845;28;20992;-63
2022/05/18 11:32:44;;;;;;;1.70;1.63;;;31.30;66.20;;;;;;5032952;28;20994;-63
2022/05/18 11:35:27;;;;;;;2.60;1.93;;;31.40;68.80;;;;;;5033293;28;20469;-63
2022/05/18 11:38:25;;;;;;;2.53;1.80;;;31.60;63.70;;;;;;5033232;28;20788;-63
2022/05/18 11:41:01;;;;;;;2.40;1.77;;;31.50;65.90;;;;;;5016144;28;20992;-63
2022/05/18 11:43:39;;;;;;;2.30;1.70;;;31.20;64.20;;;;;;5032137;28;20469;-63
2022/05/18 11:46:42;;;;;;;2.33;1.93;;;31.30;66.00;;;;;;5029136;28;20833;-63
2022/05/18 11:49:18;;;;;;;3.10;2.00;;;31.50;70.80;;;;;;4984355;28;20491;-64
2022/05/18 11:52:05;;;;;;;2.60;2.20;;;31.70;70.10;;;;;;5032416;28;20820;-63
2022/05/18 11:54:53;;;;;;;2.30;1.83;;;31.70;69.70;;;;;;5024088;28;20878;-63
2022/05/18 11:57:32;;;;;;;1.97;1.90;;;31.80;69.40;;;;;;5031893;28;20462;-63
2022/05/18 12:00:09;;;;;;;2.60;1.83;;;32.00;68.60;;;;;;5032100;28;20462;-62
2022/05/18 12:03:13;;;;;;;2.00;1.70;;;32.30;67.70;;;;;;5032083;28;20486;-63
2022/05/18 12:06:06;;;;;;;3.43;2.03;;;32.50;66.70;;;;;;5031525;28;20455;-64
2022/05/18 12:09:15;;;;;;;3.03;1.93;;;32.40;63.60;;;;;;5031885;28;20497;-64
2022/05/18 12:11:55;;;;;;;2.40;1.70;;;32.00;68.20;;;;;;4991315;28;20474;-65
2022/05/18 12:14:38;;;;;;;2.90;2.20;;;31.70;66.70;;;;;;5025214;28;20949;-64
2022/05/18 12:17:12;;;;;;;1.83;1.60;;;31.80;65.70;;;;;;5033774;28;20462;-65
2022/05/18 12:19:47;;;;;;;2.40;1.90;;;31.80;67.60;;;;;;5032637;28;20557;-65
2022/05/18 12:22:20;;;;;;;2.80;2.00;;;31.80;67.80;;;;;;5031856;28;20458;-64
2022/05/18 12:24:49;;;;;;;2.37;1.97;;;31.80;66.60;;;;;;5031471;28;20537;-64
2022/05/18 12:27:18;;;;;;;1.93;1.70;;;31.80;66.90;;;;;;5030538;28;20470;-64
2022/05/18 12:29:50;;;;;;;4.67;2.20;;;31.70;67.70;;;;;;5031398;28;20490;-64
2022/05/18 12:32:19;;;;;;;2.60;2.00;;;31.80;65.50;;;;;;5031430;28;20462;-65
2022/05/18 12:34:56;;;;;;;3.73;1.97;;;31.90;68.20;;;;;;5031252;28;20893;-64
2022/05/18 12:37:31;;;;;;;2.00;1.90;;;32.00;65.50;;;;;;5031046;28;20462;-66
2022/05/18 12:40:24;;;;;;;2.33;1.90;;;32.10;65.90;;;;;;5023287;28;20473;-66
2022/05/18 12:42:58;;;;;;;2.37;2.10;;;32.20;65.00;;;;;;5031093;28;20459;-65
2022/05/18 12:45:37;;;;;;;2.07;1.77;;;32.20;67.40;;;;;;5031504;28;20459;-65
2022/05/18 12:48:21;;;;;;;4.90;1.73;;;32.20;66.10;;;;;;5031246;28;21030;-65
2022/05/18 12:51:06;;;;;;;2.87;2.00;;;32.20;67.90;;;;;;5029045;28;20964;-65
2022/05/18 12:53:47;;;;;;;2.20;1.87;;;32.20;66.80;;;;;;5031181;28;20462;-66
2022/05/18 12:56:20;;;;;;;1.70;1.70;;;32.30;64.70;;;;;;5024772;28;20831;-65
2022/05/18 12:58:55;;;;;;;2.53;1.90;;;32.30;66.90;;;;;;5030911;28;20520;-65
2022/05/18 13:01:25;;;;;;;2.90;2.10;;;32.40;66.90;;;;;;5030871;28;20826;-65
2022/05/18 13:03:58;;;;;;;2.90;2.03;;;32.50;67.10;;;;;;5030875;28;20459;-65
2022/05/18 13:06:48;;;;;;;2.43;2.07;;;32.60;65.60;;;;;;5030710;28;20489;-65
2022/05/18 13:09:39;;;;;;;2.73;1.93;;;32.80;66.80;;;;;;5031104;28;20497;-65
2022/05/18 13:12:37;;;;;;;2.23;1.77;;;32.70;62.90;;;;;;5031061;28;20462;-66
2022/05/18 13:15:08;;;;;;;2.43;1.83;;;32.80;67.00;;;;;;5030494;28;20524;-65
2022/05/18 13:17:51;;;;;;;3.90;2.10;;;33.00;65.10;;;;;;5030778;28;20458;-66
2022/05/18 13:20:52;;;;;;;3.63;2.00;;;32.90;64.30;;;;;;5030858;28;20807;-64
2022/05/18 13:23:42;;;;;;;2.30;1.90;;;33.00;64.20;;;;;;4982005;28;20494;-65
2022/05/18 13:26:22;;;;;;;2.50;1.93;;;32.90;65.40;;;;;;5024260;28;20540;-65
2022/05/18 13:28:52;;;;;;;2.30;2.00;;;33.20;63.70;;;;;;5024803;28;20581;-66
2022/05/18 13:31:21;;;;;;;2.53;1.93;;;32.90;63.00;;;;;;5030350;28;20823;-65
2022/05/18 13:33:56;;;;;;;2.03;1.70;;;32.90;63.00;;;;;;5029943;28;20459;-65
2022/05/18 13:36:39;;;;;;;2.10;1.80;;;32.90;63.90;;;;;;5030459;28;20450;-64
2022/05/18 13:39:09;;;;;;;2.43;1.97;;;32.90;64.80;;;;;;5030441;28;20473;-66
2022/05/18 13:41:37;;;;;;;2.70;1.83;;;33.10;63.70;;;;;;5030571;28;20964;-65
2022/05/18 13:44:06;;;;;;;2.97;2.00;;;33.20;61.10;;;;;;5030140;28;20457;-66
2022/05/18 13:46:35;;;;;;;2.30;2.00;;;33.20;63.20;;;;;;5030382;28;20455;-67
2022/05/18 13:49:09;;;;;;;3.97;2.20;;;33.20;66.20;;;;;;5030356;28;20568;-66
2022/05/18 13:51:41;;;;;;;3.77;2.27;;;33.20;65.40;;;;;;5032453;28;20490;-65
2022/05/18 13:54:11;;;;;;;2.50;2.17;;;33.10;64.10;;;;;;5028412;28;20466;-65
2022/05/18 13:56:44;;;;;;;2.70;2.10;;;33.20;64.90;;;;;;5032109;28;20455;-65
2022/05/18 13:59:18;;;;;;;2.63;2.00;;;33.20;61.10;;;;;;5032233;28;20816;-66
2022/05/18 14:01:47;;;;;;;1.93;1.67;;;33.00;65.70;;;;;;5032356;28;20450;-65
2022/05/18 14:04:18;;;;;;;3.03;2.30;;;32.90;63.90;;;;;;5032258;28;20945;-65
2022/05/18 14:06:48;;;;;;;3.10;2.00;;;33.10;63.30;;;;;;5032186;28;20454;-65
2022/05/18 14:09:18;;;;;;;3.50;2.20;;;33.20;62.70;;;;;;5031941;28;20482;-65
2022/05/18 14:11:45;;;;;;;2.23;2.00;;;33.40;61.60;;;;;;5025979;28;20497;-65
2022/05/18 14:14:13;;;;;;;2.73;2.10;;;33.60;61.90;;;;;;5032104;28;20529;-66
2022/05/18 14:16:44;;;;;;;2.10;1.90;;;33.80;62.10;;;;;;5032177;28;20528;-66
2022/05/18 14:19:17;;;;;;;2.53;2.00;;;33.80;64.70;;;;;;5032102;28;20802;-66
2022/05/18 14:21:47;;;;;;;2.80;2.20;;;33.70;62.00;;;;;;5032129;28;20462;-66
2022/05/18 14:24:20;;;;;;;3.10;2.20;;;33.60;61.70;;;;;;5032071;28;20463;-67
2022/05/18 14:26:52;;;;;;;3.47;2.50;;;33.50;62.50;;;;;;5032112;28;20863;-66
2022/05/18 14:29:35;;;;;;;4.10;2.20;;;33.40;65.10;;;;;;5030204;28;20532;-66
2022/05/18 14:32:07;;;;;;;3.33;2.20;;;33.30;61.70;;;;;;5032198;28;20469;-66
2022/05/18 14:34:39;;;;;;;3.23;2.40;;;33.30;63.60;;;;;;5031764;28;20462;-66
2022/05/18 14:37:13;;;;;;;2.50;2.10;;;33.50;63.90;;;;;;5031883;28;20956;-66
2022/05/18 14:39:46;;;;;;;3.20;1.93;;;33.50;64.00;;;;;;5031977;28;20970;-65
2022/05/18 14:42:13;;;;;;;3.50;1.97;;;33.70;61.90;;;;;;5031661;28;20454;-66
2022/05/18 14:44:53;;;;;;;2.70;2.00;;;33.50;61.40;;;;;;5031055;28;20972;-66
2022/05/18 14:47:29;;;;;;;2.53;2.10;;;33.50;62.30;;;;;;5031609;28;20856;-65
2022/05/18 14:50:11;;;;;;;2.57;2.00;;;33.40;62.90;;;;;;5031632;28;21184;-65
2022/05/18 14:52:45;;;;;;;2.77;2.20;;;33.50;61.20;;;;;;5031379;28;20463;-65
2022/05/18 14:55:15;;;;;;;2.60;2.30;;;33.70;63.80;;;;;;5031364;28;20867;-65
2022/05/18 14:57:44;;;;;;;2.63;2.00;;;33.70;63.50;;;;;;5031286;28;20455;-65
2022/05/18 15:00:16;;;;;;;1.90;1.90;;;33.80;61.00;;;;;;5026976;28;20459;-66
2022/05/18 15:02:49;;;;;;;4.10;2.30;;;33.80;61.60;;;;;;5029529;28;20463;-66
2022/05/18 15:05:21;;;;;;;1.70;1.60;;;33.90;59.40;;;;;;5026518;28;20458;-65
2022/05/18 15:07:57;;;;;;;2.37;1.83;;;33.80;61.60;;;;;;5029219;28;20458;-65
2022/05/18 15:10:27;;;;;;;2.43;2.10;;;33.80;61.80;;;;;;5021469;28;20498;-65
2022/05/18 15:13:00;;;;;;;3.00;2.37;;;33.80;62.20;;;;;;5029645;28;20462;-65
2022/05/18 15:15:30;;;;;;;2.30;2.00;;;33.70;62.80;;;;;;5029389;28;20467;-65
2022/05/18 15:18:00;;;;;;;2.47;2.17;;;33.80;61.90;;;;;;5029586;28;20525;-65
2022/05/18 15:20:39;;;;;;;4.23;2.73;;;33.70;61.40;;;;;;5029321;28;20458;-65
2022/05/18 15:23:13;;;;;;;4.03;2.50;;;33.50;61.90;;;;;;5029462;28;20481;-65
2022/05/18 15:25:48;;;;;;;2.60;2.27;;;33.50;63.40;;;;;;5028811;28;20455;-66
2022/05/18 15:28:20;;;;;;;1.93;1.83;;;33.60;61.80;;;;;;5029343;28;20476;-65
2022/05/18 15:30:51;;;;;;;2.77;2.10;;;33.60;61.50;;;;;;5028907;28;20526;-66
2022/05/18 15:33:19;;;;;;;2.97;2.20;;;33.40;63.20;;;;;;5029304;28;20458;-67
2022/05/18 15:35:59;;;;;;;4.47;2.43;;;33.20;66.00;;;;;;5029029;28;20490;-66
2022/05/18 15:38:29;;;;;;;2.60;2.07;;;33.20;64.10;;;;;;5021594;28;20468;-66
2022/05/18 15:40:57;;;;;;;3.37;2.37;;;33.40;64.80;;;;;;5029088;28;20462;-66
2022/05/18 15:43:24;;;;;;;3.83;2.07;;;33.00;65.10;;;;;;5028944;28;20797;-66
2022/05/18 15:45:58;;;;;;;3.03;2.17;;;32.80;66.00;;;;;;5047580;28;20928;-65
2022/05/18 15:48:25;;;;;;;5.93;3.43;;;32.80;66.40;;;;;;5051648;28;20887;-64
2022/05/18 15:50:54;;;;;;;3.50;2.33;;;33.00;64.80;;;;;;5051105;28;20482;-64
2022/05/18 15:53:24;;;;;;;2.23;2.00;;;32.90;66.80;;;;;;5042126;28;20462;-64
2022/05/18 15:56:04;;;;;;;2.43;2.13;;;32.80;66.10;;;;;;5051426;28;20480;-64
2022/05/18 15:58:31;;;;;;;3.40;2.17;;;32.70;67.10;;;;;;5051371;28;20526;-63
2022/05/18 16:00:59;;;;;;;2.50;2.13;;;32.30;67.00;;;;;;5051284;28;20932;-63
2022/05/18 16:03:28;;;;;;;3.30;2.43;;;32.30;67.10;;;;;;5051429;28;20496;-63
2022/05/18 16:05:57;;;;;;;3.50;2.20;;;32.00;67.30;;;;;;5051679;28;20458;-64
2022/05/18 16:08:26;;;;;;;2.37;2.13;;;32.00;66.80;;;;;;5051309;28;20477;-65
2022/05/18 16:10:55;;;;;;;2.33;2.03;;;32.10;67.20;;;;;;5051524;28;20491;-65
2022/05/18 16:13:26;;;;;;;2.63;2.33;;;32.20;67.30;;;;;;5051528;28;20457;-66
2022/05/18 16:15:54;;;;;;;3.23;2.53;;;32.20;66.50;;;;;;5051443;28;20464;-65
2022/05/18 16:18:25;;;;;;;2.90;2.10;;;32.10;66.70;;;;;;5055243;28;20460;-63
2022/05/18 16:20:53;;;;;;;4.47;3.23;;;31.90;67.20;;;;;;5054897;28;20461;-64
2022/05/18 16:23:21;;;;;;;2.93;2.00;;;31.60;66.90;;;;;;5055271;28;20457;-64
2022/05/18 16:25:49;;;;;;;3.50;2.20;;;31.30;69.30;;;;;;5054809;28;20478;-63
2022/05/18 16:28:22;;;;;;;2.23;1.93;;;31.30;68.80;;;;;;5054968;28;20548;-64
2022/05/18 16:30:52;;;;;;;2.07;1.90;;;31.20;67.60;;;;;;5054596;28;20897;-64
2022/05/18 16:33:21;;;;;;;3.43;2.33;;;31.10;69.40;;;;;;5054823;28;20458;-64
2022/05/18 16:35:48;;;;;;;2.70;1.97;;;30.90;69.10;;;;;;5054389;28;20975;-64
2022/05/18 16:38:15;;;;;;;3.50;2.43;;;30.80;69.30;;;;;;5052626;28;20450;-64
2022/05/18 16:40:42;;;;;;;3.27;2.30;;;30.80;70.20;;;;;;5054358;28;20457;-65
2022/05/18 16:43:09;;;;;;;3.00;2.50;;;30.80;70.90;;;;;;5054001;28;20446;-64
2022/05/18 16:45:40;;;;;;;4.13;2.03;;;30.80;69.60;;;;;;5054372;28;20449;-64
2022/05/18 16:48:08;;;;;;;3.00;2.20;;;30.70;70.90;;;;;;5054543;28;20500;-64
2022/05/18 16:50:35;;;;;;;3.23;2.33;;;30.60;69.60;;;;;;5054217;28;20509;-64
2022/05/18 16:53:02;;;;;;;3.00;2.30;;;30.60;70.50;;;;;;5054101;28;20458;-65
2022/05/18 16:55:30;;;;;;;3.27;2.50;;;30.60;70.00;;;;;;5053258;28;20943;-64
2022/05/18 16:57:57;;;;;;;4.50;2.23;;;30.50;70.50;;;;;;5053567;28;20966;-64
2022/05/18 17:00:24;;;;;;;4.00;2.60;;;30.30;69.90;;;;;;5044471;28;20458;-64
2022/05/18 17:02:52;;;;;;;3.00;2.17;;;30.20;71.20;;;;;;5053628;28;20465;-64
2022/05/18 17:10:51;;;;;;;2.50;2.10;;;30.00;71.10;;;;;;5048188;28;20484;-64
2022/05/18 17:13:27;;;;;;;3.10;2.30;;;29.90;72.10;;;;;;5053390;28;20462;-65
2022/05/18 17:15:55;;;;;;;3.57;2.37;;;29.90;73.20;;;;;;5053369;28;20500;-64
2022/05/18 17:18:23;;;;;;;3.10;2.23;;;29.80;73.00;;;;;;5045333;28;20468;-65
2022/05/18 17:20:50;;;;;;;2.87;2.23;;;29.80;73.20;;;;;;5053440;28;20449;-64
2022/05/18 17:23:18;;;;;;;4.90;2.33;;;29.70;74.60;;;;;;5051975;28;20493;-64
2022/05/18 17:25:45;;;;;;;2.67;2.20;;;29.70;72.80;;;;;;5052932;28;20476;-64
2022/05/18 17:28:15;;;;;;;3.00;2.30;;;29.50;72.30;;;;;;5051937;28;20457;-64
2022/05/18 17:30:42;;;;;;;3.43;2.50;;;29.40;72.30;;;;;;5052748;28;20477;-64
2022/05/18 17:33:09;;;;;;;2.20;2.00;;;29.30;72.30;;;;;;5052770;28;20457;-64
2022/05/18 17:35:41;;;;;;;3.53;2.47;;;29.10;73.40;;;;;;5052846;28;20472;-64
2022/05/18 17:38:08;;;;;;;4.10;2.47;;;28.90;74.20;;;;;;5053060;28;20462;-64
2022/05/18 17:40:36;;;;;;;3.17;2.40;;;28.80;73.20;;;;;;5052587;28;20477;-64
2022/05/18 17:43:03;;;;;;;3.00;2.40;;;28.70;74.20;;;;;;5052832;28;20484;-64
2022/05/18 17:45:31;;;;;;;3.83;2.23;;;28.50;74.30;;;;;;5052552;28;20454;-64
2022/05/18 17:47:59;;;;;;;3.00;2.13;;;28.40;75.20;;;;;;5052674;28;20844;-64
2022/05/18 17:50:26;;;;;;;2.40;2.00;;;28.20;75.70;;;;;;5052422;28;20478;-64
2022/05/18 17:52:54;;;;;;;3.53;2.30;;;28.10;75.80;;;;;;5052600;28;20458;-64
2022/05/18 17:55:22;;;;;;;3.70;2.03;;;28.10;76.40;;;;;;5043076;28;20465;-64
2022/05/18 17:57:49;;;;;;;3.67;2.10;;;28.10;76.60;;;;;;5052397;28;20457;-64
2022/05/18 18:00:21;;;;;;;3.00;2.00;;;28.00;76.90;;;;;;5052192;28;20457;-64
2022/05/18 18:02:50;;;;;;;2.87;2.30;;;27.90;75.80;;;;;;5052842;28;20768;-64
2022/05/18 18:05:22;;;;;;;3.33;2.00;;;27.80;76.70;;;;;;5052464;28;20488;-64
2022/05/18 18:07:49;;;;;;;2.70;1.90;;;27.60;77.40;;;;;;5052359;28;20458;-64
2022/05/18 18:10:20;;;;;;;2.73;2.20;;;27.40;77.50;;;;;;5052162;28;20869;-64
2022/05/18 18:12:47;;;;;;;2.10;1.80;;;27.40;78.70;;;;;;5052170;28;20967;-64
2022/05/18 18:15:17;;;;;;;2.43;2.00;;;27.20;80.00;;;;;;5052380;28;20540;-64
2022/05/18 18:17:46;;;;;;;3.23;2.60;;;27.10;79.10;;;;;;5052145;28;20962;-64
2022/05/18 18:20:18;;;;;;;2.33;1.87;;;27.10;80.20;;;;;;5052323;28;20453;-64
2022/05/18 18:22:49;;;;;;;4.77;2.47;;;27.00;80.20;;;;;;5052146;28;20465;-64
2022/05/18 18:25:18;;;;;;;3.30;2.63;;;26.70;82.20;;;;;;5050085;28;20576;-63
2022/05/18 18:27:45;;;;;;;3.30;2.43;;;26.60;82.10;;;;;;5051796;28;20450;-62
2022/05/18 18:30:15;;;;;;;2.37;2.07;;;26.60;80.80;;;;;;5051784;28;20769;-63
2022/05/18 18:32:43;;;;;;;3.33;2.33;;;26.50;81.50;;;;;;5051879;28;20462;-62
2022/05/18 18:35:11;;;;;;;2.90;2.07;;;26.40;80.70;;;;;;5048969;28;20978;-63
2022/05/18 18:37:39;;;;;;;4.27;2.50;;;26.40;81.20;;;;;;5051514;28;20460;-63
2022/05/18 18:40:09;;;;;;;3.20;2.20;;;26.20;83.10;;;;;;5031991;28;20456;-63
2022/05/18 18:42:37;;;;;;;2.90;2.20;;;26.00;82.90;;;;;;5051515;28;20454;-63
2022/05/18 18:45:06;;;;;;;2.57;1.93;;;25.90;83.30;;;;;;5051506;28;20454;-63
2022/05/18 18:47:33;;;;;;;2.67;2.10;;;25.80;83.40;;;;;;5051342;28;20464;-63
2022/05/18 18:50:00;;;;;;;3.27;2.17;;;25.60;85.80;;;;;;5051376;28;20826;-63
2022/05/18 18:55:21;;;;;;;2.33;1.80;;;25.30;86.40;;;;;;5051557;28;20445;-63
2022/05/18 18:57:51;;;;;;;3.90;2.17;;;25.00;86.90;;;;;;5051850;28;20488;-62
2022/05/18 19:00:21;;;;;;;3.90;2.57;;;24.90;87.70;;;;;;5051272;28;20557;-61
2022/05/18 19:02:48;;;;;;;4.37;2.20;;;24.80;88.50;;;;;;5051167;28;20453;-63
2022/05/18 19:05:18;;;;;;;5.07;2.47;;;24.70;87.90;;;;;;5051539;28;20963;-63
2022/05/18 19:07:47;;;;;;;4.73;2.43;;;24.60;88.00;;;;;;5051251;28;20969;-66
2022/05/18 19:10:19;;;;;;;2.50;2.00;;;24.50;87.50;;;;;;5051087;28;20467;-63
2022/05/18 19:12:51;;;;;;;3.20;2.30;;;24.50;90.00;;;;;;5051282;28;20457;-63
2022/05/18 19:15:20;;;;;;;3.43;2.40;;;24.50;88.40;;;;;;5051361;28;20560;-63
2022/05/18 19:17:48;;;;;;;2.60;2.13;;;24.40;86.60;;;;;;5051387;28;20453;-63
2022/05/18 19:20:18;;;;;;;4.37;2.73;;;24.40;86.20;;;;;;5049275;28;20461;-63
2022/05/18 19:22:48;;;;;;;3.50;2.60;;;24.40;87.20;;;;;;5051503;28;20461;-64
2022/05/18 19:25:18;;;;;;;3.00;2.00;;;24.40;87.80;;;;;;5050765;28;20636;-64
2022/05/18 19:27:47;;;;;;;3.57;2.47;;;24.50;86.30;;;;;;5045060;28;20453;-63
2022/05/18 19:30:15;;;;;;;3.30;2.23;;;24.30;86.40;;;;;;5051252;28;20823;-63
2022/05/18 19:32:43;;;;;;;3.03;2.10;;;24.30;86.30;;;;;;5051104;28;20979;-62
2022/05/18 19:35:11;;;;;;;2.30;2.00;;;24.20;87.00;;;;;;5050925;28;20548;-63
2022/05/18 19:37:40;;;;;;;3.27;2.43;;;24.00;86.80;;;;;;5050820;28;20995;-62
2022/05/18 19:40:09;;;;;;;2.40;2.20;;;24.00;87.60;;;;;;5050903;28;20462;-61
2022/05/18 19:42:38;;;;;;;4.33;2.60;;;24.00;88.00;;;;;;5051021;28;20465;-63
2022/05/18 19:45:08;;;;;;;3.93;2.33;;;23.90;88.20;;;;;;5050967;28;20450;-63
2022/05/18 19:47:37;;;;;;;2.87;2.00;;;23.70;88.50;;;;;;5050927;28;21008;-63
2022/05/18 19:50:05;;;;;;;3.60;2.60;;;23.80;89.20;;;;;;5050728;28;20955;-63
2022/05/18 19:52:32;;;;;;;3.00;2.30;;;23.70;89.90;;;;;;5053300;28;20484;-62
2022/05/18 19:54:59;;;;;;;2.57;1.97;;;23.70;89.00;;;;;;5054896;28;20454;-64
2022/05/18 19:57:27;;;;;;;2.87;2.07;;;23.70;88.40;;;;;;5055099;28;20473;-63
2022/05/18 19:59:54;;;;;;;2.87;2.20;;;23.60;89.50;;;;;;5049768;28;20457;-64
2022/05/18 20:02:25;;;;;;;2.37;2.23;;;23.70;88.80;;;;;;5054996;28;20442;-66
2022/05/18 20:04:53;;;;;;;3.50;2.10;;;23.50;88.40;;;;;;5054606;28;20453;-66
2022/05/18 20:07:20;;;;;;;3.10;2.27;;;23.50;89.00;;;;;;5054393;28;20529;-66
2022/05/18 20:09:47;;;;;;;3.83;2.20;;;23.50;89.60;;;;;;5054620;28;20454;-66
2022/05/18 20:12:15;;;;;;;2.47;1.90;;;23.40;90.40;;;;;;5054642;28;21030;-66
2022/05/18 20:14:42;;;;;;;2.60;1.93;;;23.40;88.60;;;;;;5054497;28;20511;-67
2022/05/18 20:17:09;;;;;;;3.63;2.40;;;23.40;90.20;;;;;;5054547;28;20449;-66
2022/05/18 20:19:36;;;;;;;2.83;2.00;;;23.30;90.00;;;;;;5054647;28;20931;-66
2022/05/18 20:22:05;;;;;;;4.40;2.50;;;23.10;90.00;;;;;;5054367;28;20458;-67
2022/05/18 20:24:32;;;;;;;3.03;2.20;;;23.20;89.20;;;;;;5054534;28;20454;-67
2022/05/18 20:26:59;;;;;;;2.53;2.13;;;23.10;90.00;;;;;;5053929;28;20508;-66
2022/05/18 20:29:26;;;;;;;3.53;2.80;;;23.10;89.90;;;;;;5054890;28;20461;-66
2022/05/18 20:31:56;;;;;;;5.67;3.33;;;23.10;89.30;;;;;;5054685;28;20484;-66
2022/05/18 20:34:23;;;;;;;4.30;2.67;;;23.00;89.30;;;;;;5054382;28;20465;-66
2022/05/18 20:36:51;;;;;;;3.93;2.30;;;23.00;89.70;;;;;;5054759;28;20454;-66
2022/05/18 20:39:20;;;;;;;3.53;2.30;;;22.90;90.10;;;;;;5054668;28;20450;-66
2022/05/18 20:41:50;;;;;;;3.37;2.10;;;22.90;90.10;;;;;;5054650;28;20454;-67
2022/05/18 20:44:26;;;;;;;3.57;2.43;;;22.80;89.80;;;;;;5054202;28;20569;-67
2022/05/18 20:46:54;;;;;;;2.93;2.03;;;22.80;90.00;;;;;;5054462;28;20468;-67
2022/05/18 20:49:21;;;;;;;2.70;2.00;;;22.80;90.80;;;;;;5054463;28;20461;-67
2022/05/18 20:51:48;;;;;;;5.10;2.60;;;22.70;91.50;;;;;;5054477;28;20494;-67
2022/05/18 20:54:16;;;;;;;4.73;2.40;;;22.50;91.30;;;;;;5054388;28;20807;-66
2022/05/18 20:56:45;;;;;;;3.33;2.40;;;22.40;91.70;;;;;;5054448;28;20457;-66
2022/05/18 20:59:13;;;;;;;2.73;2.03;;;22.30;91.50;;;;;;5054175;28;20932;-66
2022/05/18 21:01:42;;;;;;;3.43;2.13;;;22.20;92.40;;;;;;5053786;28;20967;-66
2022/05/18 21:04:11;;;;;;;3.20;2.17;;;22.20;92.60;;;;;;5054311;28;20457;-66
2022/05/18 21:06:38;;;;;;;2.40;2.00;;;22.10;92.60;;;;;;5053869;28;20454;-67
2022/05/18 21:09:06;;;;;;;2.70;1.73;;;22.00;93.10;;;;;;5054288;28;20465;-66
2022/05/18 21:11:33;;;;;;;3.17;2.00;;;22.00;92.80;;;;;;5053778;28;20489;-67
2022/05/18 21:14:06;;;;;;;2.87;2.43;;;22.00;94.10;;;;;;5054158;28;20557;-66
2022/05/18 21:16:34;;;;;;;2.90;2.00;;;22.00;92.90;;;;;;5053613;28;20454;-67
2022/05/18 21:19:01;;;;;;;2.23;1.90;;;22.00;93.30;;;;;;5054294;28;20847;-67
2022/05/18 21:21:28;;;;;;;2.40;1.90;;;21.80;93.30;;;;;;5053425;28;20871;-67
2022/05/18 21:23:56;;;;;;;3.80;2.00;;;21.60;95.10;;;;;;5053697;28;20450;-66
2022/05/18 21:26:25;;;;;;;3.50;2.57;;;21.60;95.00;;;;;;5053258;28;20458;-66
2022/05/18 21:28:53;;;;;;;6.70;2.37;;;21.50;94.90;;;;;;5052989;28;20460;-66
2022/05/18 21:31:25;;;;;;;3.90;2.30;;;21.40;95.40;;;;;;5043715;28;20478;-66
2022/05/18 21:33:53;;;;;;;7.43;2.00;;;21.30;95.20;;;;;;5053313;28;20453;-66
2022/05/18 21:36:22;;;;;;;3.17;2.23;;;21.30;95.10;;;;;;5053528;28;20823;-66
2022/05/18 21:38:50;;;;;;;3.43;2.40;;;21.30;95.10;;;;;;5053750;28;20931;-67
2022/05/18 21:41:18;;;;;;;3.10;2.20;;;21.20;95.60;;;;;;5053543;28;20461;-68
2022/05/18 21:43:47;;;;;;;2.53;2.03;;;21.10;96.30;;;;;;5053754;28;20986;-67
2022/05/18 21:46:16;;;;;;;2.53;1.97;;;21.10;96.30;;;;;;5053615;28;20465;-67
2022/05/18 21:48:45;;;;;;;2.77;2.10;;;21.00;94.70;;;;;;5053292;28;20500;-68
2022/05/18 21:51:12;;;;;;;4.90;2.70;;;20.90;95.90;;;;;;5053360;28;20458;-68
2022/05/18 21:53:39;;;;;;;3.23;2.23;;;20.90;96.90;;;;;;5053186;28;20472;-68
2022/05/18 21:56:07;;;;;;;2.50;1.93;;;20.90;97.60;;;;;;5049855;28;20458;-65
2022/05/18 21:58:37;;;;;;;3.90;2.00;;;20.80;97.20;;;;;;5052877;28;20496;-65
2022/05/18 22:01:05;;;;;;;3.53;1.90;;;20.90;97.70;;;;;;5049521;28;20462;-65
2022/05/18 22:03:34;;;;;;;2.17;2.07;;;20.80;97.70;;;;;;5053046;28;20469;-65
2022/05/18 22:06:04;;;;;;;5.20;2.40;;;20.60;98.00;;;;;;5052923;28;20465;-65
2022/05/18 22:08:31;;;;;;;5.47;3.50;;;20.40;98.00;;;;;;5053059;28;20460;-65
2022/05/18 22:11:00;;;;;;;3.60;2.50;;;20.20;98.00;;;;;;5048715;28;20974;-65
2022/05/18 22:13:29;;;;;;;2.87;2.00;;;20.20;98.00;;;;;;5053056;28;20464;-65
2022/05/18 22:15:58;;;;;;;3.07;2.20;;;20.10;98.00;;;;;;5052692;28;20465;-65
2022/05/18 22:18:25;;;;;;;2.83;2.13;;;20.00;98.00;;;;;;5052592;28;20540;-65
2022/05/18 22:20:53;;;;;;;3.30;2.40;;;19.90;98.00;;;;;;5053058;28;20457;-65
2022/05/18 22:23:22;;;;;;;3.17;2.10;;;19.90;98.00;;;;;;5052557;28;20457;-65
2022/05/18 22:25:49;;;;;;;3.63;2.13;;;19.80;98.00;;;;;;5052575;28;20484;-65
2022/05/18 22:28:21;;;;;;;2.47;1.80;;;19.90;98.00;;;;;;5052472;28;20472;-66
2022/05/18 22:30:49;;;;;;;2.53;2.00;;;19.70;98.00;;;;;;5046985;28;20457;-65
2022/05/18 22:33:16;;;;;;;2.17;1.83;;;19.60;98.00;;;;;;5052306;28;21047;-66
2022/05/18 22:35:44;;;;;;;3.10;1.90;;;19.60;98.00;;;;;;5052170;28;20477;-66
2022/05/18 22:38:11;;;;;;;2.90;2.03;;;19.60;98.00;;;;;;5052269;28;20480;-66
2022/05/18 22:40:42;;;;;;;2.53;2.10;;;19.50;98.00;;;;;;5052198;28;20454;-66
2022/05/18 22:43:12;;;;;;;2.67;2.10;;;19.60;98.00;;;;;;5049847;28;20460;-66
2022/05/18 22:45:43;;;;;;;3.20;2.07;;;19.60;98.00;;;;;;5052267;28;20469;-66
2022/05/18 22:48:12;;;;;;;2.50;1.97;;;19.40;98.00;;;;;;5052283;28;20460;-66
2022/05/18 22:50:42;;;;;;;3.07;2.40;;;19.30;98.00;;;;;;5052053;28;20511;-66
2022/05/18 22:53:09;;;;;;;2.70;2.00;;;19.30;98.00;;;;;;5052145;28;20481;-66
2022/05/18 22:55:39;;;;;;;2.67;2.20;;;19.40;98.00;;;;;;5052150;28;20462;-66
2022/05/18 22:58:07;;;;;;;2.50;1.97;;;19.50;98.00;;;;;;5052268;28;21039;-66
2022/05/18 23:00:34;;;;;;;3.53;2.00;;;19.50;98.00;;;;;;5052234;28;20575;-66
2022/05/18 23:03:02;;;;;;;2.17;1.60;;;19.50;97.80;;;;;;5052304;28;20779;-66